Eller, North Carolina
Current Conditions -  °F | °C
As of 9:54 PM on Monday 26 Jan 2015 (Local Time) from KINT Reporting Station
Overcast Overcast  
Wind Chill: 31°   Ceiling: 6000
Heat Index: 38°   Visibility: 10mi
Dew Point: 24°   Wind: 9mph
Humidity: 57%   Direction: 320°NW
Pressure: 29.73"   Gusts: NA
Location:  36.0182°N, 80.183°W
Report Text: KINT 270254Z AUTO 32008KT 10SM OVC060 03/M04 A2973 RMK AO2 SLP071 T00331044 51017
Loading
Personal Weather Stations






























Interactive Weather Map New forecast layout! Learn more

10-Day Weather Forecast

Advertisements
Track Severe Weather on mobile